Time;durP1;ratioP1;P1;durP2;ratioP2;P2;SDS_P1;SDS_P2;PMS_P1;PMS_P2;Temp;Humidity;BMP_temperature;BMP_pressure;BME280_temperature;BME280_humidity;BME280_pressure;Samples;Min_cycle;Max_cycle;Signal;HPM_P1;HPM_P2
2022/10/05 00:00:47;;;;;;;11.43;4.43;;;;;;;13.75;76.72;101489.19;10327877;28;20440;-86
2022/10/05 00:05:49;;;;;;;12.63;4.38;;;;;;;13.73;76.91;101482.09;10331080;28;20042;-87
2022/10/05 00:10:51;;;;;;;11.98;3.55;;;;;;;13.76;77.08;101492.69;10324598;28;20133;-88
2022/10/05 00:16:17;;;;;;;10.18;4.38;;;;;;;13.73;77.34;101490.88;10350079;28;20116;-88
2022/10/05 00:21:22;;;;;;;10.05;3.97;;;;;;;13.70;77.27;101476.81;10331125;28;20054;-87
2022/10/05 00:26:30;;;;;;;13.07;3.53;;;;;;;13.65;77.47;101467.97;10347956;28;20043;-86
2022/10/05 00:31:34;;;;;;;10.55;4.00;;;;;;;13.67;77.63;101460.97;10358995;28;20480;-87
2022/10/05 00:36:38;;;;;;;13.02;4.13;;;;;;;13.71;77.74;101460.16;10344498;28;20038;-86
2022/10/05 00:42:11;;;;;;;12.40;4.15;;;;;;;13.68;77.85;101463.63;10336850;28;20651;-87
2022/10/05 00:47:30;;;;;;;10.38;4.25;;;;;;;13.68;77.96;101482.03;10341867;28;20556;-88
2022/10/05 00:52:50;;;;;;;12.93;4.25;;;;;;;13.69;78.06;101477.66;10342789;28;20054;-86
2022/10/05 00:58:02;;;;;;;14.20;5.32;;;;;;;13.63;78.14;101472.31;10326233;28;20040;-86
2022/10/05 01:03:24;;;;;;;7.75;3.70;;;;;;;13.60;78.59;101468.78;10346899;28;20045;-88
2022/10/05 01:08:57;;;;;;;15.00;4.40;;;;;;;13.64;78.42;101464.44;10329934;28;20046;-86
2022/10/05 01:14:24;;;;;;;10.02;4.30;;;;;;;13.65;78.35;101460.06;10323557;28;20065;-90
2022/10/05 01:19:45;;;;;;;12.85;4.38;;;;;;;13.68;78.64;101444.31;10326982;28;20685;-86
2022/10/05 01:25:06;;;;;;;13.77;4.90;;;;;;;13.70;78.61;101447.84;10335269;28;20553;-87
2022/10/05 01:30:12;;;;;;;12.32;4.40;;;;;;;13.65;78.76;101439.03;10349291;28;20058;-87
2022/10/05 01:35:14;;;;;;;9.43;4.28;;;;;;;13.65;78.64;101433.75;10343120;28;20061;-86
2022/10/05 01:40:44;;;;;;;11.27;4.32;;;;;;;13.63;78.96;101430.19;10336076;28;20057;-86
2022/10/05 01:46:22;;;;;;;13.20;5.00;;;;;;;13.62;79.02;101418.81;10313501;28;20137;-86
2022/10/05 01:51:50;;;;;;;9.15;4.03;;;;;;;13.63;79.09;101401.25;10332228;28;20360;-87
2022/10/05 01:57:03;;;;;;;12.63;4.30;;;;;;;13.60;79.26;101389.84;10312082;28;20902;-87
2022/10/05 02:02:11;;;;;;;15.18;5.20;;;;;;;13.54;79.44;101381.84;10350473;28;20054;-88
2022/10/05 02:07:27;;;;;;;11.05;4.82;;;;;;;13.57;79.49;101386.25;10357340;28;20112;-86
2022/10/05 02:12:35;;;;;;;9.98;4.90;;;;;;;13.53;79.64;101382.72;10330444;28;20042;-88
2022/10/05 02:17:45;;;;;;;11.13;4.90;;;;;;;13.54;79.54;101378.31;10332077;28;20422;-87
2022/10/05 02:22:52;;;;;;;9.40;4.60;;;;;;;13.47;79.66;101376.47;10319108;28;20411;-88
2022/10/05 02:28:03;;;;;;;11.65;4.13;;;;;;;13.43;80.11;101372.91;10333695;28;20073;-86
2022/10/05 02:33:27;;;;;;;15.27;5.05;;;;;;;13.41;80.25;101372.00;10326913;28;20420;-89
2022/10/05 02:38:56;;;;;;;12.98;5.05;;;;;;;13.40;80.18;101380.75;10334749;28;20796;-89
2022/10/05 02:44:16;;;;;;;8.57;4.35;;;;;;;13.34;80.60;101362.25;10331478;28;20053;-87
2022/10/05 02:49:29;;;;;;;9.02;4.97;;;;;;;13.32;80.76;101371.84;10351549;28;20576;-87
2022/10/05 02:55:08;;;;;;;10.90;4.72;;;;;;;13.36;80.89;101360.53;10323607;28;20529;-88
2022/10/05 03:00:21;;;;;;;11.23;4.88;;;;;;;13.39;80.98;101352.66;10318324;28;20081;-88
2022/10/05 03:05:34;;;;;;;;;;;;;;;13.41;81.13;101340.44;10321868;28;20146;-90
2022/10/05 03:10:55;;;;;;;12.00;5.60;;;;;;;13.42;81.10;101347.44;10331236;28;20016;-89
2022/10/05 03:16:31;;;;;;;12.73;5.75;;;;;;;13.46;81.26;101344.00;10317161;28;20062;-88
2022/10/05 03:22:15;;;;;;;12.95;4.63;;;;;;;13.44;81.39;101351.00;10305068;28;20456;-86
2022/10/05 03:27:43;;;;;;;11.98;5.13;;;;;;;13.41;81.51;101338.69;10305583;28;20042;-86
2022/10/05 03:32:54;;;;;;;12.05;5.13;;;;;;;13.37;81.62;101339.50;10333171;28;20057;-89
2022/10/05 03:37:55;;;;;;;15.65;5.70;;;;;;;13.34;81.69;101341.22;10341429;28;20042;-86
2022/10/05 03:43:17;;;;;;;14.00;5.28;;;;;;;13.25;81.90;101339.28;10346535;28;20053;-86
2022/10/05 03:48:53;;;;;;;12.02;5.63;;;;;;;13.23;82.01;101330.50;10310586;28;20046;-87
2022/10/05 03:54:31;;;;;;;14.30;5.20;;;;;;;13.24;82.22;101333.16;10331855;28;20068;-88
2022/10/05 04:00:02;;;;;;;12.05;5.13;;;;;;;13.17;82.33;101331.28;10304218;28;20523;-86
2022/10/05 04:05:20;;;;;;;10.75;4.95;;;;;;;13.12;82.35;101326.81;10344053;28;20058;-86
2022/10/05 04:10:24;;;;;;;11.18;5.55;;;;;;;12.99;82.64;101326.63;10331939;28;20050;-88
2022/10/05 04:15:36;;;;;;;11.65;5.25;;;;;;;12.96;83.03;101315.19;10351481;28;20052;-87
2022/10/05 04:20:52;;;;;;;13.65;5.60;;;;;;;12.91;83.27;101318.63;10342361;28;20124;-87
2022/10/05 04:26:08;;;;;;;13.02;6.00;;;;;;;12.84;83.60;101315.88;10326593;28;20545;-87
2022/10/05 04:31:15;;;;;;;12.48;6.07;;;;;;;12.76;83.72;101307.88;10324249;28;20077;-86
2022/10/05 04:36:38;;;;;;;10.13;5.45;;;;;;;12.69;84.04;101300.75;10333671;28;20056;-87
2022/10/05 04:42:08;;;;;;;15.13;5.85;;;;;;;12.66;84.40;101300.69;10329689;28;20046;-86
2022/10/05 04:47:13;;;;;;;12.95;5.72;;;;;;;12.62;84.66;101294.50;10321213;28;20049;-87
2022/10/05 04:52:34;;;;;;;12.30;5.60;;;;;;;12.59;84.59;101291.81;10298409;28;20077;-86
2022/10/05 04:57:47;;;;;;;13.07;6.75;;;;;;;12.50;85.18;101287.28;10297812;28;20132;-85
2022/10/05 05:03:25;;;;;;;12.02;6.40;;;;;;;12.49;85.24;101293.41;10328721;28;20041;-85
2022/10/05 05:08:43;;;;;;;11.80;6.00;;;;;;;12.45;85.56;101291.59;10299726;28;20088;-87
2022/10/05 05:14:00;;;;;;;11.98;6.50;;;;;;;12.45;85.70;101288.09;10327493;28;20049;-87
2022/10/05 05:19:24;;;;;;;13.95;6.68;;;;;;;12.41;85.86;101289.75;10320107;28;20052;-86
2022/10/05 05:24:29;;;;;;;13.45;6.60;;;;;;;12.42;86.03;101285.41;10346509;28;20081;-87
2022/10/05 05:29:41;;;;;;;15.70;7.63;;;;;;;12.41;86.34;101278.38;10313854;28;20057;-87
2022/10/05 05:35:21;;;;;;;14.75;6.57;;;;;;;12.40;86.41;101274.88;10329427;28;20084;-87
2022/10/05 05:40:35;;;;;;;14.98;7.43;;;;;;;12.52;86.44;101267.19;10249368;28;20054;-87
2022/10/05 05:45:40;;;;;;;14.23;7.72;;;;;;;12.63;86.39;101264.75;10332030;28;20149;-86
2022/10/05 05:51:10;;;;;;;15.23;7.45;;;;;;;12.66;86.49;101261.28;10327697;28;20046;-84
2022/10/05 05:56:36;;;;;;;13.43;6.88;;;;;;;12.74;86.66;101257.03;10326299;28;20600;-85
2022/10/05 06:01:43;;;;;;;14.63;7.45;;;;;;;12.74;86.45;101262.28;10334327;28;20082;-85
2022/10/05 06:06:51;;;;;;;12.82;6.68;;;;;;;12.87;86.30;101261.63;10314310;28;20039;-85
2022/10/05 06:12:00;;;;;;;19.70;8.00;;;;;;;12.90;86.23;101258.16;10313649;28;20080;-85
2022/10/05 06:17:11;;;;;;;16.30;7.75;;;;;;;12.95;86.17;101271.38;10352755;28;20141;-86
2022/10/05 06:22:29;;;;;;;15.25;7.60;;;;;;;12.98;86.21;101253.00;10346893;28;20808;-85
2022/10/05 06:27:56;;;;;;;16.65;7.60;;;;;;;13.00;86.05;101259.16;10340454;28;20046;-85
2022/10/05 06:33:23;;;;;;;16.70;7.45;;;;;;;13.02;85.96;101262.72;10319372;28;20056;-82
2022/10/05 06:38:55;;;;;;;13.50;6.53;;;;;;;13.09;85.91;101265.44;10337722;28;20541;-84
2022/10/05 06:44:08;;;;;;;15.45;7.60;;;;;;;13.06;85.67;101285.53;10322292;28;20143;-83
2022/10/05 06:50:06;;;;;;;15.93;8.45;;;;;;;13.04;85.91;101293.41;10302186;28;20052;-86
2022/10/05 06:55:45;;;;;;;16.50;7.65;;;;;;;13.12;86.10;101290.00;10346323;28;20085;-82
2022/10/05 07:01:09;;;;;;;15.52;7.85;;;;;;;13.13;85.85;101292.66;10327661;28;20046;-85
2022/10/05 07:06:24;;;;;;;15.25;7.75;;;;;;;13.19;85.88;101292.75;10351950;28;20076;-84
2022/10/05 07:11:46;;;;;;;17.02;7.95;;;;;;;13.16;85.80;101281.31;10334229;28;20053;-86
2022/10/05 07:17:21;;;;;;;12.88;7.13;;;;;;;13.15;85.83;101285.69;10323830;28;20158;-86
2022/10/05 07:22:53;;;;;;;20.33;8.18;;;;;;;13.14;86.13;101277.78;10370277;28;20124;-85
2022/10/05 07:28:12;;;;;;;16.42;7.60;;;;;;;13.21;86.10;101284.88;10334044;28;20555;-85
2022/10/05 07:33:25;;;;;;;16.88;7.53;;;;;;;13.19;86.12;101286.63;10326615;28;20089;-85
2022/10/05 07:39:01;;;;;;;17.63;7.57;;;;;;;13.36;86.00;101284.25;10324022;28;20100;-84
2022/10/05 07:44:25;;;;;;;17.05;7.25;;;;;;;13.51;85.79;101288.81;10347388;28;20411;-84
2022/10/05 07:49:51;;;;;;;10.60;5.47;;;;;;;13.65;85.42;101292.53;10349111;28;20501;-84
2022/10/05 07:54:59;;;;;;;14.43;7.70;;;;;;;13.71;85.02;101292.59;10327963;28;20745;-85
2022/10/05 08:00:09;;;;;;;13.98;6.97;;;;;;;13.82;84.60;101289.22;10344992;28;20038;-85
2022/10/05 08:05:22;;;;;;;12.40;6.70;;;;;;;13.86;84.16;101297.16;10331697;28;20061;-84
2022/10/05 08:10:48;;;;;;;10.63;5.05;;;;;;;13.87;83.90;101293.69;10329844;28;20440;-85
2022/10/05 08:16:01;;;;;;;12.30;6.10;;;;;;;13.96;83.92;101288.50;10331507;28;20056;-85
2022/10/05 08:21:10;;;;;;;11.60;5.47;;;;;;;14.10;83.61;101287.78;10334012;28;20692;-86
2022/10/05 08:26:12;;;;;;;;;;;;;;;14.16;83.46;101290.47;10334722;28;20061;-85
2022/10/05 08:31:23;;;;;;;19.25;5.80;;;;;;;14.18;83.23;101282.59;10335418;28;21927;-85
2022/10/05 08:37:02;;;;;;;10.35;4.70;;;;;;;14.20;83.34;101281.75;10316846;28;20061;-82
2022/10/05 08:42:41;;;;;;;10.20;5.65;;;;;;;14.18;83.05;101278.19;10338938;28;20073;-86
2022/10/05 08:48:15;;;;;;;9.57;5.38;;;;;;;14.27;82.86;101275.66;10336456;28;20049;-84
2022/10/05 08:53:24;;;;;;;11.70;5.25;;;;;;;14.36;82.62;101276.63;10328982;28;20043;-85
2022/10/05 08:58:58;;;;;;;16.23;5.35;;;;;;;14.44;82.40;101267.00;10341499;28;20133;-84
2022/10/05 09:04:27;;;;;;;11.07;4.63;;;;;;;14.45;82.10;101271.44;10320198;28;20589;-83
2022/10/05 09:09:59;;;;;;;11.80;5.80;;;;;;;14.49;81.68;101267.97;10335445;28;20049;-84
2022/10/05 09:15:08;;;;;;;10.32;5.80;;;;;;;14.46;81.73;101262.66;10330486;28;20054;-85
2022/10/05 09:20:52;;;;;;;13.77;6.05;;;;;;;14.52;81.53;101262.72;10335505;28;20045;-86
2022/10/05 09:25:57;;;;;;;13.98;5.68;;;;;;;14.60;81.63;101255.75;10349632;28;20054;-85
2022/10/05 09:31:20;;;;;;;10.68;5.30;;;;;;;14.80;81.13;101247.13;10335921;28;20391;-83
2022/10/05 09:36:46;;;;;;;10.80;5.72;;;;;;;14.99;80.55;101238.47;10340402;28;20050;-86
2022/10/05 09:42:23;;;;;;;9.45;4.15;;;;;;;14.97;79.91;101229.69;10352807;28;20122;-85
2022/10/05 09:47:27;;;;;;;10.45;5.05;;;;;;;15.12;79.56;101228.00;10329449;28;20054;-85
2022/10/05 09:52:43;;;;;;;9.45;4.68;;;;;;;15.39;78.99;101227.25;10341430;28;20061;-85
2022/10/05 09:58:13;;;;;;;7.07;4.00;;;;;;;15.42;78.22;101215.81;10320868;28;20405;-85
2022/10/05 10:08:46;;;;;;;6.45;4.05;;;;;;;15.55;77.09;101207.06;10698881;23;20079;-84
2022/10/05 10:14:08;;;;;;;6.95;3.58;;;;;;;15.75;76.97;101204.50;10292079;28;20046;-85
2022/10/05 10:19:28;;;;;;;6.60;3.17;;;;;;;15.82;76.39;101197.50;10300477;28;20537;-84
2022/10/05 10:24:50;;;;;;;6.53;3.25;;;;;;;15.93;76.00;101198.41;10293686;28;20652;-86
2022/10/05 10:30:07;;;;;;;6.13;3.10;;;;;;;15.94;75.62;101200.16;10307245;28;20052;-86
2022/10/05 10:35:39;;;;;;;6.22;3.03;;;;;;;15.86;75.29;101197.50;10303953;28;20065;-84
2022/10/05 10:41:18;;;;;;;7.43;2.72;;;;;;;15.90;75.23;101188.72;10300868;28;20050;-86
2022/10/05 10:47:07;;;;;;;5.40;2.65;;;;;;;15.99;75.02;101181.66;10287554;28;20137;-84
2022/10/05 10:52:18;;;;;;;5.53;2.80;;;;;;;16.00;74.78;101171.13;10300857;28;20134;-85
2022/10/05 10:58:02;;;;;;;6.35;2.47;;;;;;;16.07;74.37;101180.78;10300643;28;20059;-85
2022/10/05 11:03:32;;;;;;;5.90;2.78;;;;;;;16.23;74.17;101164.97;10302727;28;20081;-85
2022/10/05 11:08:49;;;;;;;6.85;1.95;;;;;;;16.40;73.83;101171.09;10310726;28;21034;-84
2022/10/05 11:14:20;;;;;;;8.73;3.13;;;;;;;16.37;73.09;101165.81;10300213;28;20093;-83
2022/10/05 11:19:58;;;;;;;4.38;2.20;;;;;;;16.44;73.24;101164.06;10307698;28;20061;-84
2022/10/05 11:25:33;;;;;;;4.82;2.38;;;;;;;16.42;72.79;101165.81;10315908;28;20038;-85
2022/10/05 11:31:08;;;;;;;10.80;2.58;;;;;;;16.66;72.46;101159.59;10321764;28;20085;-84
2022/10/05 11:36:12;;;;;;;5.05;2.17;;;;;;;16.71;72.08;101149.91;10319186;28;20054;-84
2022/10/05 11:41:35;;;;;;;5.43;2.40;;;;;;;16.85;71.73;101149.88;10321707;28;20071;-85
2022/10/05 11:46:50;;;;;;;4.43;2.03;;;;;;;16.80;71.91;101149.03;10336343;28;20249;-83
2022/10/05 11:52:18;;;;;;;9.23;2.53;;;;;;;16.89;71.91;101129.59;10345904;28;20062;-82
2022/10/05 11:57:32;;;;;;;5.57;2.80;;;;;;;16.96;71.86;101126.06;10320969;28;20070;-82
2022/10/05 12:03:00;;;;;;;5.32;2.05;;;;;;;16.94;71.68;101111.97;10342642;28;20060;-84
2022/10/05 12:08:14;;;;;;;5.22;2.10;;;;;;;17.25;71.62;101106.53;10323994;28;20046;-84
2022/10/05 12:13:33;;;;;;;6.43;2.70;;;;;;;17.53;71.24;101111.66;10337480;28;20572;-84
2022/10/05 12:18:38;;;;;;;5.07;2.30;;;;;;;17.62;71.16;101090.41;10347106;28;20077;-84
2022/10/05 12:23:55;;;;;;;4.63;2.15;;;;;;;17.95;70.57;101080.47;10330917;28;20070;-83
2022/10/05 12:29:24;;;;;;;5.25;2.60;;;;;;;17.78;70.74;101075.28;10315885;28;20493;-83
2022/10/05 12:34:46;;;;;;;9.23;2.45;;;;;;;18.08;70.47;101066.22;10334583;28;20057;-83
2022/10/05 12:39:57;;;;;;;7.72;2.97;;;;;;;18.44;69.81;101061.44;10335751;28;20073;-82
2022/10/05 12:44:59;;;;;;;7.10;2.42;;;;;;;18.37;69.31;101065.03;10322862;28;20046;-83
2022/10/05 12:50:41;;;;;;;4.93;2.25;;;;;;;18.34;69.61;101054.47;10334783;28;20066;-82
2022/10/05 12:55:55;;;;;;;3.40;1.80;;;;;;;18.30;69.53;101053.66;10330368;28;20135;-82
2022/10/05 13:01:01;;;;;;;8.45;2.70;;;;;;;18.26;69.66;101069.59;10311544;28;20061;-83
2022/10/05 13:06:25;;;;;;;5.78;2.20;;;;;;;18.17;69.37;101075.88;10312677;28;20059;-83
2022/10/05 13:11:46;;;;;;;6.18;2.25;;;;;;;18.16;69.50;101072.31;10329030;28;20054;-83
2022/10/05 13:17:06;;;;;;;5.40;2.40;;;;;;;18.18;69.44;101081.16;10333105;28;20078;-84
2022/10/05 13:22:32;;;;;;;6.63;2.30;;;;;;;18.07;69.36;101067.09;10334257;28;20453;-82
2022/10/05 13:27:38;;;;;;;6.65;2.30;;;;;;;18.04;69.65;101064.50;10349634;28;20058;-83
2022/10/05 13:33:05;;;;;;;5.13;2.40;;;;;;;18.02;70.05;101064.50;10344461;28;20043;-81
2022/10/05 13:38:23;;;;;;;6.20;2.25;;;;;;;17.98;69.50;101069.84;10335982;28;20046;-83
2022/10/05 13:43:50;;;;;;;7.18;2.20;;;;;;;17.87;69.87;101071.69;10334875;28;20126;-82
2022/10/05 13:49:17;;;;;;;5.63;2.13;;;;;;;17.84;70.05;101070.81;10333498;28;20054;-82
2022/10/05 13:54:46;;;;;;;7.07;2.35;;;;;;;17.73;70.52;101072.69;10299775;28;20050;-82
2022/10/05 14:00:01;;;;;;;8.70;2.30;;;;;;;17.72;70.51;101056.81;10313493;28;20122;-83
2022/10/05 14:05:18;;;;;;;6.68;1.90;;;;;;;17.74;70.57;101055.88;10342069;28;20511;-83
2022/10/05 14:10:37;;;;;;;5.22;2.47;;;;;;;17.76;70.08;101050.56;10337900;28;20054;-82
2022/10/05 14:15:39;;;;;;;7.40;2.03;;;;;;;17.76;70.50;101056.78;10329494;28;20422;-81
2022/10/05 14:21:22;;;;;;;6.68;1.80;;;;;;;17.82;70.19;101061.16;10324062;28;20645;-82
2022/10/05 14:26:31;;;;;;;3.05;1.60;;;;;;;17.87;70.49;101051.38;10356762;28;20051;-82
2022/10/05 15:32:48;;;;;;;3.53;1.50;;;;;;;17.78;70.77;100993.19;10025000;29;20109;-85
2022/10/05 15:38:07;;;;;;;7.25;1.80;;;;;;;17.79;71.06;101000.22;10058934;29;20098;-82
2022/10/05 15:43:15;;;;;;;5.47;1.93;;;;;;;17.78;71.02;100986.13;10056771;29;20067;-81
2022/10/05 15:48:44;;;;;;;4.60;1.80;;;;;;;17.75;70.82;100990.59;10199035;29;20135;-81
2022/10/05 16:00:06;;;;;;;5.32;1.77;;;;;;;17.64;71.45;100999.50;10249415;28;20518;-82
2022/10/05 16:08:49;;;;;;;4.82;1.63;;;;;;;17.62;71.42;100993.31;10224894;28;20070;-81
2022/10/05 16:11:00;;;;;;;2.72;1.45;;;;;;;17.56;71.69;100996.03;10251788;28;20203;-80
2022/10/05 16:16:41;;;;;;;5.85;1.80;;;;;;;17.52;72.04;101004.00;10265563;28;20196;-82
2022/10/05 16:22:12;;;;;;;6.88;2.10;;;;;;;17.46;72.24;101008.47;10263276;28;20042;-80
2022/10/05 16:27:40;;;;;;;4.10;2.08;;;;;;;17.44;72.54;101006.72;10238375;28;20126;-81
2022/10/05 16:32:52;;;;;;;6.78;2.38;;;;;;;17.38;72.64;101023.50;10248746;28;20049;-81
2022/10/05 16:38:14;;;;;;;5.30;1.90;;;;;;;17.41;72.72;101023.50;10263575;28;20047;-81
2022/10/05 16:43:25;;;;;;;3.88;1.90;;;;;;;17.29;73.31;101016.53;10285014;28;20047;-82
2022/10/05 16:48:43;;;;;;;3.17;1.85;;;;;;;17.26;73.47;101028.91;10268502;28;20150;-81
2022/10/05 16:54:03;;;;;;;4.03;1.73;;;;;;;17.24;73.64;101034.19;10257175;28;20081;-82
2022/10/05 16:59:24;;;;;;;4.70;1.70;;;;;;;17.23;73.71;101031.56;10227133;28;20062;-79
2022/10/05 17:04:38;;;;;;;8.77;1.80;;;;;;;17.16;73.72;101037.78;10257290;28;20574;-82
2022/10/05 17:10:06;;;;;;;3.10;1.83;;;;;;;17.12;73.95;101043.09;10273429;28;20518;-80
2022/10/05 17:15:31;;;;;;;4.68;1.77;;;;;;;17.11;74.26;101046.66;10258534;28;20232;-80
2022/10/05 17:20:45;;;;;;;9.57;2.00;;;;;;;17.06;74.62;101037.84;10248134;28;20062;-78
2022/10/05 17:26:06;;;;;;;4.95;1.90;;;;;;;17.04;74.46;101044.91;10238582;28;20062;-78
2022/10/05 17:31:16;;;;;;;7.97;2.05;;;;;;;17.01;74.67;101047.59;10241087;28;20739;-78
2022/10/05 17:36:17;;;;;;;7.68;2.10;;;;;;;17.03;75.03;101052.88;10217798;28;20198;-77
2022/10/05 17:41:25;;;;;;;5.20;2.08;;;;;;;16.97;75.03;101059.06;10242861;28;20161;-78
2022/10/05 17:46:38;;;;;;;4.85;2.10;;;;;;;16.94;75.10;101067.88;10253875;28;20054;-82
2022/10/05 17:57:03;;;;;;;7.10;2.38;;;;;;;16.86;75.25;101074.94;10281468;28;20082;-81
2022/10/05 18:02:42;;;;;;;4.22;1.98;;;;;;;16.85;75.31;101080.25;10268773;28;20515;-81
2022/10/05 18:07:49;;;;;;;3.85;2.00;;;;;;;16.79;75.39;101076.72;10289926;28;20054;-80
2022/10/05 18:13:00;;;;;;;6.07;2.10;;;;;;;16.84;75.47;101073.19;10273927;28;20047;-80
2022/10/05 18:18:44;;;;;;;5.93;2.08;;;;;;;16.84;76.05;101082.00;10288323;28;20051;-80
2022/10/05 18:24:00;;;;;;;6.38;3.03;;;;;;;16.84;75.97;101078.47;10263209;28;20235;-80
2022/10/05 18:35:00;;;;;;;3.10;1.87;;;;;;;16.96;75.94;101073.16;10287484;28;20047;-79
2022/10/05 18:40:37;;;;;;;3.45;1.70;;;;;;;17.04;76.04;101089.88;10285450;28;20051;-80
2022/10/05 18:46:18;;;;;;;5.07;1.60;;;;;;;17.21;75.23;101088.94;10277753;28;20055;-80
2022/10/05 18:51:51;;;;;;;4.15;1.30;;;;;;;17.24;74.73;101088.91;10263693;28;20059;-81
2022/10/05 18:56:53;;;;;;;6.40;1.25;;;;;;;17.27;74.54;101095.03;10278275;28;20073;-81
2022/10/05 19:02:19;;;;;;;9.57;2.55;;;;;;;17.35;73.86;101092.34;10261186;28;20058;-80
2022/10/05 19:07:36;;;;;;;4.53;1.30;;;;;;;17.38;73.65;101092.31;10279049;28;20050;-83
2022/10/05 19:13:01;;;;;;;6.05;1.67;;;;;;;17.43;73.08;101117.03;10286821;28;20129;-81
2022/10/05 19:18:18;;;;;;;3.33;1.35;;;;;;;17.46;72.70;101130.25;10279605;28;20062;-82
2022/10/05 19:23:49;;;;;;;5.32;1.20;;;;;;;17.47;72.29;101128.47;10278354;28;20066;-81
2022/10/05 19:29:33;;;;;;;3.58;1.33;;;;;;;17.39;71.88;101125.00;10284034;28;20137;-81
2022/10/05 19:34:41;;;;;;;4.10;1.42;;;;;;;17.35;71.60;101140.00;10272810;28;20118;-80
2022/10/05 19:40:04;;;;;;;4.78;1.40;;;;;;;17.30;71.56;101140.03;10273338;28;20067;-81
2022/10/05 19:45:26;;;;;;;3.90;1.17;;;;;;;17.25;71.60;101133.88;10273538;28;20062;-80
2022/10/05 19:50:32;;;;;;;3.28;1.05;;;;;;;17.16;71.80;101147.16;10278422;28;20051;-81
2022/10/05 19:55:45;;;;;;;4.50;1.45;;;;;;;17.05;71.51;101152.47;10270270;28;20055;-81
2022/10/05 20:00:54;;;;;;;3.17;1.50;;;;;;;16.84;71.53;101157.81;10285420;28;20051;-81
2022/10/05 20:06:04;;;;;;;4.00;1.00;;;;;;;16.70;71.48;101161.38;10292440;28;20193;-81
2022/10/05 20:11:13;;;;;;;7.00;1.38;;;;;;;16.61;71.72;101167.56;10285342;28;20066;-81
2022/10/05 20:21:49;;;;;;;3.90;1.35;;;;;;;16.56;71.95;101171.13;10263720;28;20502;-80
2022/10/05 20:32:16;;;;;;;4.03;1.30;;;;;;;16.52;72.08;101174.63;10263828;28;20046;-80
2022/10/05 20:37:18;;;;;;;4.10;1.20;;;;;;;16.46;72.21;101191.38;10278476;28;20475;-82
2022/10/05 20:42:22;;;;;;;2.42;1.20;;;;;;;16.47;72.55;101185.22;10270418;28;20059;-81
2022/10/05 20:47:25;;;;;;;4.82;1.50;;;;;;;16.49;72.74;101177.28;10262845;28;20054;-82
2022/10/05 20:52:26;;;;;;;9.57;1.30;;;;;;;16.47;72.75;101179.94;10264560;28;20077;-81
2022/10/05 20:57:28;;;;;;;6.05;1.35;;;;;;;16.49;72.92;101193.16;10266943;28;20490;-82
2022/10/05 21:02:30;;;;;;;3.50;1.33;;;;;;;16.55;73.18;101193.13;10270660;28;20673;-82
2022/10/05 21:07:33;;;;;;;4.75;1.48;;;;;;;16.55;73.39;101198.41;10274783;28;20083;-81
2022/10/05 21:12:34;;;;;;;4.13;1.40;;;;;;;16.55;73.32;101211.63;10273472;28;20055;-83
2022/10/05 21:17:37;;;;;;;3.67;1.50;;;;;;;16.61;73.48;101214.28;10271570;28;20080;-82
2022/10/05 21:22:42;;;;;;;2.65;1.48;;;;;;;16.65;73.59;101212.50;10273258;28;20046;-82
2022/10/05 21:27:45;;;;;;;3.10;1.45;;;;;;;16.67;73.41;101226.59;10277086;28;20065;-81
2022/10/05 21:32:46;;;;;;;3.38;1.40;;;;;;;16.66;73.95;101233.63;10272156;28;20049;-81
2022/10/05 21:37:48;;;;;;;8.60;1.35;;;;;;;16.69;73.89;101280.34;10254262;28;20558;-81
2022/10/05 21:42:49;;;;;;;0.90;0.70;;;;;;;16.23;75.64;101321.72;10275554;28;20511;-82
2022/10/05 21:47:51;;;;;;;0.93;0.30;;;;;;;15.30;77.90;101331.00;10273614;28;20074;-81
2022/10/05 21:52:53;;;;;;;0.55;0.47;;;;;;;14.84;80.49;101351.75;10295793;28;20115;-81
2022/10/05 21:57:55;;;;;;;;;;;;;;;14.21;82.54;101345.81;10261130;28;20048;-81
2022/10/05 22:02:57;;;;;;;0.40;0.40;;;;;;;13.91;84.01;101336.72;10293108;28;20390;-82
2022/10/05 22:07:59;;;;;;;0.50;0.40;;;;;;;13.71;85.46;101339.09;10277768;28;20058;-82
2022/10/05 22:13:02;;;;;;;0.95;0.50;;;;;;;13.68;86.39;101368.88;10272561;28;20118;-82
2022/10/05 22:18:17;;;;;;;1.67;0.52;;;;;;;13.67;87.39;101376.75;10298174;28;20195;-82
2022/10/05 22:23:19;;;;;;;0.60;0.52;;;;;;;13.65;88.28;101382.00;10278919;28;20054;-82
2022/10/05 22:28:32;;;;;;;2.10;0.70;;;;;;;13.70;88.88;101392.59;10288340;28;20082;-82
2022/10/05 22:33:38;;;;;;;1.38;0.70;;;;;;;13.72;89.29;101391.75;10290743;28;20074;-82
2022/10/05 22:38:54;;;;;;;2.63;0.80;;;;;;;13.72;89.82;101411.91;10287733;28;20054;-82
2022/10/05 22:43:55;;;;;;;1.75;0.68;;;;;;;13.73;89.99;101411.06;10293830;28;20462;-81
2022/10/05 22:48:57;;;;;;;1.45;0.77;;;;;;;13.76;89.98;101422.50;10293427;28;20137;-82
2022/10/05 22:53:59;;;;;;;0.82;0.50;;;;;;;13.78;89.83;101440.94;10286111;28;20058;-82
2022/10/05 22:59:00;;;;;;;3.80;1.08;;;;;;;13.77;88.65;101476.03;10260485;28;20101;-82
2022/10/05 23:04:03;;;;;;;0.68;0.40;;;;;;;13.55;88.14;101475.69;10269414;28;20078;-82
2022/10/05 23:09:04;;;;;;;0.95;0.60;;;;;;;13.39;87.48;101476.31;10294207;28;20078;-82
2022/10/05 23:14:06;;;;;;;0.30;0.30;;;;;;;13.32;86.69;101487.56;10287658;28;20444;-81
2022/10/05 23:19:08;;;;;;;0.13;0.13;;;;;;;13.12;85.25;101488.13;10287034;28;20043;-82
2022/10/05 23:24:10;;;;;;;1.02;0.25;;;;;;;12.91;83.97;101497.38;10283045;28;20110;-82
2022/10/05 23:29:11;;;;;;;1.05;0.30;;;;;;;12.88;83.96;101520.06;10289473;28;20046;-82
2022/10/05 23:34:13;;;;;;;1.13;0.38;;;;;;;12.86;84.32;101521.78;10292463;28;20070;-82
2022/10/05 23:39:15;;;;;;;0.50;0.43;;;;;;;12.83;84.94;101530.50;10291658;28;20077;-81
2022/10/05 23:44:16;;;;;;;0.85;0.28;;;;;;;12.87;85.81;101537.59;10289492;28;20051;-81
2022/10/05 23:49:18;;;;;;;0.40;0.40;;;;;;;12.89;86.20;101553.38;10274680;28;20147;-81
2022/10/05 23:54:20;;;;;;;3.08;0.68;;;;;;;12.95;87.06;101557.88;10288375;28;20061;-81
2022/10/05 23:59:21;;;;;;;0.88;0.40;;;;;;;13.04;87.70;101561.56;10291611;28;20055;-81
